createdAt,value
2023-05-17T00:03:56.778Z,10.00
2023-05-17T00:08:06.219Z,9.90
2023-05-17T00:12:15.202Z,9.90
2023-05-17T00:16:25.841Z,9.90
2023-05-17T00:20:34.979Z,9.70
2023-05-17T00:24:43.958Z,9.60
2023-05-17T00:28:53.084Z,9.60
2023-05-17T00:33:03.764Z,9.60
2023-05-17T00:37:12.873Z,9.50
2023-05-17T00:41:21.893Z,9.50
2023-05-17T00:45:31.026Z,9.50
2023-05-17T00:49:41.619Z,9.50
2023-05-17T00:53:51.040Z,9.40
2023-05-17T00:58:00.242Z,9.30
2023-05-17T01:02:09.445Z,9.30
2023-05-17T01:06:20.240Z,9.10
2023-05-17T01:10:37.708Z,9.20
2023-05-17T01:14:56.177Z,9.20
2023-05-17T01:19:14.326Z,9.20
2023-05-17T01:23:37.945Z,9.20
2023-05-17T01:27:52.182Z,9.20
2023-05-17T01:32:04.021Z,9.20
2023-05-17T01:36:13.135Z,9.20
2023-05-17T01:40:22.351Z,9.20
2023-05-17T01:44:39.866Z,9.10
2023-05-17T01:48:55.113Z,9.10
2023-05-17T01:53:10.607Z,9.10
2023-05-17T01:57:26.729Z,9.10
2023-05-17T02:01:37.901Z,8.90
2023-05-17T02:05:46.890Z,8.80
2023-05-17T02:09:56.023Z,8.80
2023-05-17T02:14:05.015Z,8.80
2023-05-17T02:18:15.654Z,8.70
2023-05-17T02:22:24.777Z,8.80
2023-05-17T02:26:34.034Z,8.80
2023-05-17T02:30:43.425Z,8.70
2023-05-17T02:34:54.014Z,8.70
2023-05-17T02:39:03.166Z,8.50
2023-05-17T02:43:12.266Z,8.50
2023-05-17T02:47:21.608Z,8.30
2023-05-17T02:51:32.549Z,8.30
2023-05-17T02:55:41.530Z,8.40
2023-05-17T02:59:50.601Z,8.50
2023-05-17T03:03:59.761Z,8.50
2023-05-17T03:08:10.561Z,8.50
2023-05-17T03:12:21.422Z,8.40
2023-05-17T03:16:30.578Z,8.30
2023-05-17T03:20:39.581Z,8.30
2023-05-17T03:24:50.097Z,8.30
2023-05-17T03:28:59.161Z,8.20
2023-05-17T03:33:08.249Z,8.10
2023-05-17T03:37:17.667Z,8.10
2023-05-17T03:41:28.477Z,8.20
2023-05-17T03:45:37.472Z,8.30
2023-05-17T03:49:46.682Z,8.30
2023-05-17T03:54:02.305Z,8.30
2023-05-17T03:58:12.953Z,8.20
2023-05-17T04:02:22.121Z,8.20
2023-05-17T04:06:31.187Z,8.20
2023-05-17T04:10:42.295Z,8.20
2023-05-17T04:14:52.879Z,8.20
2023-05-17T04:19:02.521Z,8.10
2023-05-17T04:23:11.634Z,8.10
2023-05-17T04:27:22.301Z,8.00
2023-05-17T04:31:33.772Z,8.00
2023-05-17T04:35:44.596Z,8.00
2023-05-17T04:39:54.268Z,8.00
2023-05-17T04:44:03.250Z,8.00
2023-05-17T04:48:14.296Z,8.00
2023-05-17T04:52:23.302Z,7.90
2023-05-17T04:56:32.878Z,7.90
2023-05-17T05:00:41.839Z,8.00
2023-05-17T05:04:53.150Z,8.00
2023-05-17T05:09:02.343Z,8.10
2023-05-17T05:13:11.524Z,8.20
2023-05-17T05:17:20.651Z,8.20
2023-05-17T05:21:32.440Z,8.30
2023-05-17T05:25:41.518Z,8.40
2023-05-17T05:29:50.593Z,8.50
2023-05-17T05:33:59.730Z,8.60
2023-05-17T05:38:10.401Z,8.70
2023-05-17T05:42:19.389Z,8.80
2023-05-17T05:46:28.773Z,8.90
2023-05-17T05:50:38.213Z,9.00
2023-05-17T05:54:48.789Z,9.10
2023-05-17T05:58:58.099Z,9.30
2023-05-17T06:03:07.798Z,9.40
2023-05-17T06:07:17.032Z,9.50
2023-05-17T06:11:28.035Z,9.70
2023-05-17T06:15:37.327Z,9.80
2023-05-17T06:19:46.447Z,10.00
2023-05-17T06:23:55.454Z,10.10
2023-05-17T06:28:09.288Z,10.30
2023-05-17T06:32:18.354Z,10.50
2023-05-17T06:36:27.449Z,10.60
2023-05-17T06:40:36.732Z,10.80
2023-05-17T06:44:47.553Z,11.10
2023-05-17T06:48:56.598Z,11.30
2023-05-17T06:53:06.526Z,11.40
2023-05-17T06:57:15.740Z,11.60
2023-05-17T07:01:26.304Z,11.80
2023-05-17T07:05:35.569Z,11.90
2023-05-17T07:09:44.671Z,12.10
2023-05-17T07:13:54.446Z,12.40
2023-05-17T07:18:05.468Z,12.50
2023-05-17T07:22:14.998Z,12.70
2023-05-17T07:26:24.020Z,12.90
2023-05-17T07:30:33.336Z,13.10
2023-05-17T07:34:44.041Z,13.30
2023-05-17T07:38:53.061Z,13.40
2023-05-17T07:43:02.063Z,13.50
2023-05-17T07:47:12.121Z,13.70
2023-05-17T07:51:22.630Z,13.80
2023-05-17T07:55:31.715Z,14.00
2023-05-17T07:59:42.878Z,14.10
2023-05-17T08:03:51.997Z,14.30
2023-05-17T08:08:02.662Z,14.50
2023-05-17T08:12:11.892Z,14.60
2023-05-17T08:16:21.160Z,14.80
2023-05-17T08:20:30.468Z,15.00
2023-05-17T08:24:45.350Z,15.30
2023-05-17T08:28:54.682Z,15.60
2023-05-17T08:33:03.926Z,15.80
2023-05-17T08:37:13.197Z,15.90
2023-05-17T08:41:24.163Z,16.20
2023-05-17T08:45:33.892Z,16.40
2023-05-17T08:49:44.882Z,16.60
2023-05-17T08:53:54.892Z,16.80
2023-05-17T08:58:07.554Z,17.30
2023-05-17T09:02:17.257Z,17.40
2023-05-17T09:06:26.791Z,17.70
2023-05-17T09:10:36.032Z,18.10
2023-05-17T09:14:46.771Z,17.80
2023-05-17T09:18:56.883Z,18.20
2023-05-17T09:23:06.280Z,18.00
2023-05-17T09:27:19.230Z,17.70
2023-05-17T09:31:44.378Z,17.60
2023-05-17T09:36:18.968Z,17.80
2023-05-17T10:14:13.533Z,18.50
2023-05-17T10:18:33.271Z,18.00
2023-05-17T10:22:49.240Z,18.60
2023-05-17T10:27:01.040Z,18.80
2023-05-17T10:31:10.472Z,18.70
2023-05-17T10:35:20.757Z,18.50
2023-05-17T10:39:39.215Z,18.40
2023-05-17T10:43:51.128Z,18.40
2023-05-17T10:48:21.202Z,18.30
2023-05-17T11:40:18.742Z,19.10
2023-05-17T11:49:15.581Z,19.10
2023-05-17T11:53:41.452Z,19.80
2023-05-17T11:57:53.097Z,20.40
2023-05-17T12:02:12.962Z,20.90
2023-05-17T12:06:23.691Z,20.90
2023-05-17T12:10:35.273Z,21.00
2023-05-17T12:14:46.662Z,20.40
2023-05-17T12:18:57.679Z,19.80
2023-05-17T12:23:07.227Z,19.00
2023-05-17T12:27:28.142Z,18.80
2023-05-17T12:31:41.201Z,19.10
2023-05-17T12:35:53.183Z,19.60
2023-05-17T12:40:14.132Z,19.50
2023-05-17T13:47:19.760Z,18.40
2023-05-17T15:07:51.502Z,19.00
2023-05-17T15:16:43.029Z,19.30
2023-05-17T15:20:52.615Z,18.90
2023-05-17T15:25:03.691Z,18.70
2023-05-17T15:29:13.866Z,18.70
2023-05-17T15:33:28.168Z,18.90
2023-05-17T15:47:38.627Z,19.60
2023-05-17T15:56:38.704Z,18.30
2023-05-17T16:00:47.921Z,18.60
2023-05-17T16:05:00.498Z,19.20
2023-05-17T16:09:12.508Z,19.10
2023-05-17T16:13:21.614Z,18.90
2023-05-17T16:17:31.140Z,19.10
2023-05-17T16:21:41.846Z,19.40
2023-05-17T16:25:50.775Z,19.60
2023-05-17T16:29:59.900Z,19.60
2023-05-17T16:34:09.004Z,18.70
2023-05-17T16:38:19.672Z,18.80
2023-05-17T16:42:28.712Z,19.10
2023-05-17T16:46:39.017Z,19.30
2023-05-17T16:50:49.877Z,19.60
2023-05-17T16:55:03.717Z,19.30
2023-05-17T16:59:13.380Z,19.10
2023-05-17T17:03:22.612Z,18.80
2023-05-17T17:07:32.404Z,18.20
2023-05-17T17:11:43.155Z,17.90
2023-05-17T17:15:52.842Z,17.90
2023-05-17T17:20:01.978Z,17.80
2023-05-17T17:24:11.317Z,18.10
2023-05-17T17:28:21.831Z,18.40
2023-05-17T17:32:30.987Z,18.70
2023-05-17T17:36:40.182Z,18.80
2023-05-17T17:40:49.448Z,18.60
2023-05-17T17:45:00.369Z,18.40
2023-05-17T17:49:09.615Z,18.40
2023-05-17T17:53:19.799Z,18.50
2023-05-17T17:57:29.001Z,18.40
2023-05-17T18:01:39.773Z,18.20
2023-05-17T18:05:48.952Z,18.10
2023-05-17T18:09:58.798Z,18.10
2023-05-17T18:14:08.152Z,17.90
2023-05-17T18:18:18.652Z,17.70
2023-05-17T18:22:27.780Z,17.60
2023-05-17T18:26:36.958Z,17.50
2023-05-17T18:30:46.258Z,17.30
2023-05-17T18:34:56.930Z,17.40
2023-05-17T18:39:06.400Z,17.30
2023-05-17T18:43:15.505Z,17.10
2023-05-17T18:47:25.193Z,17.00
2023-05-17T18:51:36.210Z,16.90
2023-05-17T18:55:50.118Z,16.70
2023-05-17T19:35:56.730Z,15.60
2023-05-17T19:40:06.970Z,15.30
2023-05-17T19:44:17.166Z,15.20
2023-05-17T19:48:35.679Z,15.00
2023-05-17T19:52:46.634Z,14.90
2023-05-17T19:56:56.237Z,14.70
2023-05-17T20:01:05.443Z,14.60
2023-05-17T20:05:25.675Z,14.50
2023-05-17T20:09:36.773Z,14.40
2023-05-17T20:13:46.024Z,14.30
2023-05-17T20:17:55.345Z,14.20
2023-05-17T20:22:04.897Z,14.00
2023-05-17T20:26:26.026Z,13.90
2023-05-17T20:30:35.322Z,13.70
2023-05-17T20:34:45.660Z,13.50
2023-05-17T20:38:55.712Z,13.30
2023-05-17T20:43:10.082Z,13.30
2023-05-17T20:47:19.106Z,13.20
2023-05-17T20:51:28.660Z,13.00
2023-05-17T20:55:37.816Z,13.00
2023-05-17T20:59:49.202Z,12.90
2023-05-17T21:03:58.753Z,12.90
2023-05-17T21:08:08.821Z,12.80
2023-05-17T21:12:18.012Z,12.60
2023-05-17T21:16:29.534Z,12.60
2023-05-17T21:20:39.398Z,12.60
2023-05-17T21:24:49.949Z,12.40
2023-05-17T21:29:00.186Z,12.30
2023-05-17T21:33:10.999Z,12.30
2023-05-17T21:37:20.903Z,12.20
2023-05-17T21:41:30.036Z,12.10
2023-05-17T21:45:39.513Z,12.00
2023-05-17T21:49:50.254Z,12.00
2023-05-17T21:53:59.504Z,11.90
2023-05-17T21:58:08.740Z,11.90
2023-05-17T22:02:18.113Z,11.80
2023-05-17T22:06:29.092Z,11.80
2023-05-17T22:10:40.798Z,11.70
2023-05-17T22:14:50.704Z,11.60
2023-05-17T22:19:00.842Z,11.60
2023-05-17T22:23:11.633Z,11.60
2023-05-17T22:27:20.932Z,11.60
2023-05-17T22:31:30.141Z,11.50
2023-05-17T22:35:41.390Z,11.50
2023-05-17T22:39:52.382Z,11.40
2023-05-17T22:44:01.656Z,11.40
2023-05-17T22:48:11.176Z,11.50
2023-05-17T22:52:20.831Z,11.30
2023-05-17T22:56:31.586Z,11.20
2023-05-17T23:00:40.748Z,11.20
2023-05-17T23:04:49.946Z,11.20
2023-05-17T23:09:00.605Z,11.10
2023-05-17T23:13:11.267Z,11.00
2023-05-17T23:17:20.422Z,11.00
2023-05-17T23:21:33.529Z,11.00
2023-05-17T23:25:42.596Z,11.00
2023-05-17T23:29:55.555Z,11.00
2023-05-17T23:34:04.751Z,11.00
2023-05-17T23:38:14.044Z,11.00
2023-05-17T23:42:23.164Z,11.00
2023-05-17T23:46:35.031Z,11.00
2023-05-17T23:50:44.289Z,11.10
2023-05-17T23:54:57.630Z,11.10
2023-05-17T23:59:07.103Z,11.10
